.
WxDataArchive / Data Records for 2009-01-14
2009-01-13 January 2009 2009-01-15

Data Records for Wednesday, 14 January 2009

Time	Temp	Chill	HIndex	Humid	Dewpt	 Wind 	HiWind	WindDir	Rain 	Barom 
-----	----	-----	------	-----	-----	------	------	-------	-----	----- 
00:00	3.5	3.5	3.5	74	-2.9	0	1	248	0.00	30.268 
00:05	3.4	3.4	3.4	74	-3.0	0	2	248	0.00	30.270 
00:10	3.4	3.4	3.4	74	-3.0	0	3	248	0.00	30.272 
00:15	3.2	3.2	3.2	73	-3.5	0	2	248	0.00	30.268 
00:20	3.0	3.0	3.0	73	-3.7	0	2	248	0.00	30.267 
00:25	3.0	3.0	3.0	73	-3.7	0	1	248	0.00	30.262 
00:30	2.8	2.8	2.8	73	-3.9	0	1	248	0.00	30.259 
00:35	2.6	2.6	2.6	73	-4.0	0	0	---	0.00	30.259 
00:40	2.6	2.6	2.6	73	-4.0	0	1	248	0.00	30.259 
00:45	2.4	2.4	2.4	73	-4.2	0	0	---	0.00	30.256 
00:50	2.4	2.4	2.4	73	-4.2	0	1	248	0.00	30.256 
00:55	2.2	2.2	2.2	73	-4.4	0	1	248	0.00	30.254 
01:00	2.0	2.0	2.0	74	-4.3	0	1	248	0.00	30.253 
01:05	2.0	2.0	2.0	74	-4.3	0	0	---	0.00	30.252 
01:10	1.8	1.8	1.8	74	-4.5	0	1	248	0.00	30.251 
01:15	1.8	1.8	1.8	74	-4.5	0	0	---	0.00	30.249 
01:20	1.7	1.7	1.7	74	-4.6	0	0	---	0.00	30.249 
01:25	1.7	1.7	1.7	75	-4.4	0	1	248	0.00	30.245 
01:30	1.5	1.5	1.5	74	-4.8	0	0	---	0.00	30.237 
01:35	1.3	1.3	1.3	74	-5.0	0	1	248	0.00	30.240 
01:40	1.3	1.3	1.3	74	-5.0	0	1	248	0.00	30.239 
01:45	1.3	1.3	1.3	74	-5.0	0	1	248	0.00	30.238 
01:50	1.3	1.3	1.3	73	-5.3	0	0	---	0.00	30.236 
01:55	1.3	1.3	1.3	73	-5.3	0	1	248	0.00	30.237 
02:00	1.5	1.5	1.5	73	-5.1	0	0	---	0.00	30.232 
02:05	1.5	1.5	1.5	73	-5.1	0	0	---	0.00	30.233 
02:10	1.5	1.5	1.5	73	-5.1	0	0	---	0.00	30.224 
02:15	1.5	1.5	1.5	73	-5.1	0	0	---	0.00	30.233 
02:20	1.7	1.7	1.7	73	-4.9	0	0	---	0.00	30.236 
02:25	1.7	1.7	1.7	73	-4.9	0	0	---	0.00	30.232 
02:30	1.8	1.8	1.8	73	-4.8	0	0	---	0.00	30.236 
02:35	2.0	2.0	2.0	73	-4.6	0	0	---	0.00	30.229 
02:40	2.2	2.2	2.2	73	-4.4	0	1	248	0.00	30.227 
02:45	2.2	2.2	2.2	73	-4.4	0	1	248	0.00	30.229 
02:50	2.4	2.4	2.4	73	-4.2	0	1	248	0.00	30.230 
02:55	2.4	2.4	2.4	73	-4.2	0	1	248	0.00	30.224 
03:00	2.6	2.6	2.6	72	-4.3	0	0	---	0.00	30.226 
03:05	2.6	2.6	2.6	72	-4.3	0	0	---	0.00	30.225 
03:10	2.6	2.6	2.6	73	-4.0	0	0	---	0.00	30.223 
03:15	2.8	2.8	2.8	73	-3.9	0	0	---	0.00	30.224 
03:20	3.0	3.0	3.0	73	-3.7	0	1	248	0.00	30.230 
03:25	3.0	3.0	3.0	73	-3.7	0	1	248	0.00	30.232 
03:30	3.2	3.2	3.2	73	-3.5	0	0	---	0.00	30.233 
03:35	3.4	3.4	3.4	73	-3.3	0	0	---	0.00	30.232 
03:40	3.4	3.4	3.4	73	-3.3	0	1	248	0.00	30.235 
03:45	3.5	3.5	3.5	74	-2.9	0	1	248	0.00	30.224 
03:50	3.5	3.5	3.5	74	-2.9	0	1	248	0.00	30.223 
03:55	3.7	3.7	3.7	74	-2.7	0	0	---	0.00	30.222 
04:00	3.7	3.7	3.7	74	-2.7	0	1	248	0.00	30.219 
04:05	3.7	3.7	3.7	74	-2.7	0	1	248	0.00	30.215 
04:10	3.7	3.7	3.7	74	-2.7	0	2	90	0.00	30.211 
04:15	3.7	3.7	3.7	74	-2.7	0	1	90	0.00	30.210 
04:20	3.7	3.7	3.7	74	-2.7	0	1	90	0.00	30.209 
04:25	3.5	3.5	3.5	74	-2.9	0	1	90	0.00	30.204 
04:30	3.5	3.5	3.5	74	-2.9	0	1	90	0.00	30.198 
04:35	3.4	3.4	3.4	74	-3.0	0	2	112	0.00	30.199 
04:40	3.4	3.4	3.4	74	-3.0	0	2	112	0.00	30.192 
04:45	3.4	3.4	3.4	74	-3.0	0	1	112	0.00	30.186 
04:50	3.4	3.4	3.4	74	-3.0	0	1	112	0.00	30.184 
04:55	3.4	3.4	3.4	74	-3.0	0	1	112	0.00	30.180 
05:00	3.4	3.4	3.4	74	-3.0	0	1	112	0.00	30.181 
05:05	3.4	3.4	3.4	74	-3.0	0	2	112	0.00	30.181 
05:10	3.4	3.4	3.4	74	-3.0	0	1	112	0.00	30.181 
05:15	3.4	3.4	3.4	74	-3.0	0	1	112	0.00	30.180 
05:20	3.5	3.5	3.5	74	-2.9	0	2	112	0.00	30.177 
05:25	3.5	3.5	3.5	74	-2.9	0	1	112	0.00	30.177 
05:30	3.5	3.5	3.5	74	-2.9	0	1	112	0.00	30.176 
05:35	3.5	3.5	3.5	74	-2.9	0	1	112	0.00	30.171 
05:40	3.7	3.7	3.7	74	-2.7	0	1	112	0.00	30.168 
05:45	3.7	3.7	3.7	74	-2.7	0	1	112	0.00	30.165 
05:50	3.7	3.7	3.7	74	-2.7	0	1	112	0.00	30.163 
05:55	3.7	3.7	3.7	74	-2.7	0	0	---	0.00	30.170 
06:00	3.7	3.7	3.7	74	-2.7	0	1	112	0.00	30.171 
06:05	3.9	3.9	3.9	75	-2.2	0	2	112	0.00	30.175 
06:10	3.9	3.9	3.9	75	-2.2	0	1	112	0.00	30.180 
06:15	4.1	4.1	4.1	76	-1.8	0	1	112	0.00	30.178 
06:20	4.1	4.1	4.1	76	-1.8	0	1	112	0.00	30.174 
06:25	4.3	4.3	4.3	76	-1.6	0	1	112	0.00	30.180 
06:30	4.3	4.3	4.3	77	-1.3	0	1	112	0.00	30.182 
06:35	4.3	4.3	4.3	77	-1.3	0	1	112	0.00	30.177 
06:40	4.3	4.3	4.3	77	-1.3	0	1	112	0.00	30.179 
06:45	4.5	4.5	4.5	77	-1.1	0	1	112	0.00	30.177 
06:50	4.5	4.5	4.5	78	-0.8	0	1	112	0.00	30.174 
06:55	4.5	4.5	4.5	78	-0.8	0	1	112	0.00	30.169 
07:00	4.5	4.5	4.5	78	-0.8	1	3	112	0.00	30.165 
07:05	4.5	4.5	4.5	78	-0.8	1	3	112	0.00	30.168 
07:10	4.5	4.5	4.5	78	-0.8	1	2	112	0.00	30.168 
07:15	4.7	4.7	4.7	79	-0.4	1	2	112	0.00	30.170 
07:20	4.8	4.8	4.8	79	-0.3	0	2	112	0.00	30.172 
07:25	4.8	4.8	4.8	79	-0.3	0	2	112	0.00	30.170 
07:30	4.8	4.8	4.8	79	-0.3	0	2	112	0.00	30.171 
07:35	5.0	5.0	5.0	79	-0.1	1	2	112	0.00	30.170 
07:40	5.0	5.0	5.0	79	-0.1	1	2	112	0.00	30.167 
07:45	5.0	5.0	5.0	79	-0.1	1	3	112	0.00	30.169 
07:50	5.0	5.0	5.0	80	0.2	0	3	112	0.00	30.167 
07:55	5.2	5.2	5.2	80	0.4	1	2	112	0.00	30.170 
08:00	5.2	5.2	5.2	80	0.4	0	1	112	0.00	30.168 
08:05	5.2	5.2	5.2	80	0.4	0	2	112	0.00	30.171 
08:10	5.2	5.2	5.2	80	0.4	1	3	112	0.00	30.170 
08:15	5.4	5.4	5.4	80	0.6	1	3	112	0.00	30.167 
08:20	5.4	5.4	5.4	80	0.6	1	3	112	0.00	30.163 
08:25	5.4	5.4	5.4	80	0.6	1	1	90	0.00	30.159 
08:30	5.6	5.6	5.6	80	0.8	1	2	90	0.00	30.156 
08:35	5.6	5.6	5.6	80	0.8	1	3	112	0.00	30.152 
08:40	5.8	5.8	5.8	81	1.3	1	3	112	0.00	30.154 
08:45	5.8	5.8	5.8	81	1.3	1	3	90	0.00	30.150 
08:50	6.0	6.0	6.0	81	1.4	2	4	90	0.00	30.147 
08:55	6.0	6.0	6.0	81	1.4	2	5	90	0.00	30.138 
09:00	6.1	6.1	6.1	81	1.5	2	5	90	0.00	30.134 
09:05	6.1	6.1	6.1	81	1.5	2	5	90	0.00	30.135 
09:10	6.3	6.3	6.3	81	1.7	2	5	90	0.00	30.130 
09:15	6.3	6.3	6.3	81	1.7	2	6	112	0.00	30.126 
09:20	6.5	6.5	6.5	81	1.9	2	5	90	0.00	30.122 
09:25	6.7	6.7	6.7	81	2.1	3	5	90	0.00	30.121 
09:30	6.9	6.9	6.9	81	2.3	2	4	90	0.00	30.121 
09:35	7.0	7.0	7.0	81	2.4	1	4	112	0.00	30.121 
09:40	7.2	7.2	7.2	81	2.6	2	6	90	0.00	30.119 
09:45	7.2	7.2	7.2	81	2.6	2	5	112	0.00	30.116 
09:50	7.2	7.2	7.2	81	2.6	2	6	90	0.00	30.114 
09:55	7.4	7.4	7.4	81	2.8	3	5	112	0.00	30.109 
10:00	7.4	7.4	7.4	81	2.8	2	6	112	0.00	30.107 
10:05	7.6	7.6	7.6	81	3.0	2	4	90	0.00	30.108 
10:10	7.7	7.7	7.7	81	3.1	3	6	112	0.00	30.106 
10:15	7.7	7.7	7.7	81	3.1	2	6	90	0.00	30.104 
10:20	7.9	7.9	7.9	82	3.6	2	5	90	0.00	30.101 
10:25	7.9	7.9	7.9	82	3.6	2	4	90	0.00	30.101 
10:30	8.1	8.1	8.1	81	3.5	2	7	112	0.00	30.099 
10:35	8.1	8.1	8.1	81	3.5	3	5	112	0.00	30.103 
10:40	8.3	8.3	8.3	81	3.7	3	7	90	0.00	30.102 
10:45	8.4	8.4	8.4	81	3.8	3	7	112	0.00	30.102 
10:50	8.4	8.4	8.4	81	3.8	3	5	90	0.00	30.101 
10:55	8.6	8.6	8.6	81	4.0	3	6	112	0.00	30.101 
11:00	8.6	8.6	8.6	81	4.0	3	7	112	0.00	30.095 
11:05	9.0	9.0	9.0	81	4.4	2	4	112	0.00	30.096 
11:10	9.2	9.2	9.2	81	4.6	3	6	90	0.00	30.093 
11:15	9.2	9.2	9.2	81	4.6	3	5	90	0.00	30.092 
11:20	9.2	1.7	9.2	81	4.6	4	7	90	0.00	30.090 
11:25	9.3	9.3	9.3	82	4.9	2	5	112	0.00	30.090 
11:30	9.3	9.3	9.3	81	4.7	3	7	90	0.00	30.086 
11:35	9.5	9.5	9.5	82	5.1	2	5	90	0.00	30.084 
11:40	9.5	9.5	9.5	82	5.1	3	7	112	0.00	30.078 
11:45	9.7	9.7	9.7	82	5.3	2	7	112	0.00	30.074 
11:50	9.9	9.9	9.9	82	5.5	3	7	90	0.00	30.072 
11:55	10.0	10.0	10.0	82	5.6	2	5	90	0.00	30.070 
12:00	10.2	2.9	10.2	82	5.8	4	7	90	0.00	30.066 
12:05	10.4	10.4	10.4	78	4.9	3	7	90	0.00	30.062 
12:10	10.5	10.5	10.5	82	6.1	2	6	90	0.00	30.060 
12:15	10.5	10.5	10.5	82	6.1	2	5	90	0.00	30.057 
12:20	10.7	10.7	10.7	82	6.3	2	6	90	0.00	30.055 
12:25	10.7	10.7	10.7	81	6.0	3	9	112	0.00	30.048 
12:30	10.7	10.7	10.7	82	6.3	3	7	90	0.00	30.044 
12:35	10.9	10.9	10.9	82	6.5	2	6	112	0.00	30.044 
12:40	11.2	11.2	11.2	82	6.8	2	4	112	0.00	30.043 
12:45	11.2	11.2	11.2	82	6.8	3	6	90	0.00	30.041 
12:50	11.2	11.2	11.2	82	6.8	2	6	90	0.00	30.039 
12:55	11.4	11.4	11.4	82	7.0	2	5	90	0.00	30.033 
13:00	11.4	11.4	11.4	82	7.0	3	11	90	0.00	30.029 
13:05	11.6	11.6	11.6	82	7.2	2	5	90	0.00	30.027 
13:10	11.7	11.7	11.7	82	7.3	2	5	112	0.00	30.025 
13:15	11.7	11.7	11.7	82	7.3	3	6	90	0.00	30.024 
13:20	11.7	11.7	11.7	82	7.3	3	7	90	0.00	30.023 
13:25	11.7	11.7	11.7	83	7.6	3	6	90	0.00	30.023 
13:30	11.9	11.9	11.9	83	7.8	2	5	68	0.00	30.024 
13:35	11.9	11.9	11.9	83	7.8	3	7	90	0.00	30.023 
13:40	11.9	11.9	11.9	83	7.8	2	6	112	0.00	30.024 
13:45	12.1	12.1	12.1	84	8.2	1	5	112	0.00	30.021 
13:50	12.3	12.3	12.3	83	8.1	1	3	90	0.00	30.022 
13:55	12.4	12.4	12.4	83	8.2	1	4	90	0.00	30.023 
14:00	12.4	12.4	12.4	83	8.2	1	4	22	0.00	30.022 
14:05	12.3	12.3	12.3	83	8.1	2	5	90	0.00	30.021 
14:10	12.3	12.3	12.3	82	7.9	2	4	45	0.00	30.020 
14:15	12.1	12.1	12.1	82	7.7	1	7	112	0.00	30.024 
14:20	11.9	11.9	11.9	82	7.5	2	5	112	0.00	30.024 
14:25	11.9	11.9	11.9	82	7.5	2	4	90	0.00	30.024 
14:30	12.1	12.1	12.1	82	7.7	1	4	112	0.00	30.025 
14:35	12.1	12.1	12.1	82	7.7	1	3	68	0.00	30.024 
14:40	12.3	12.3	12.3	82	7.9	1	5	90	0.00	30.023 
14:45	12.1	12.1	12.1	82	7.7	1	6	90	0.00	30.024 
14:50	12.1	12.1	12.1	82	7.7	1	4	90	0.00	30.025 
14:55	12.1	12.1	12.1	82	7.7	1	4	90	0.00	30.026 
15:00	12.1	12.1	12.1	82	7.7	1	5	68	0.00	30.027 
15:05	12.3	12.3	12.3	82	7.9	1	4	112	0.00	30.029 
15:10	12.3	12.3	12.3	82	7.9	1	4	45	0.00	30.035 
15:15	12.3	12.3	12.3	82	7.9	1	2	45	0.00	30.038 
15:20	12.3	12.3	12.3	82	7.9	1	4	45	0.00	30.040 
15:25	12.3	12.3	12.3	81	7.6	1	5	112	0.00	30.045 
15:30	12.4	12.4	12.4	82	8.0	1	2	90	0.00	30.047 
15:35	12.4	12.4	12.4	82	8.0	1	3	68	0.00	30.050 
15:40	12.6	12.6	12.6	82	8.2	1	4	90	0.00	30.052 
15:45	12.6	12.6	12.6	82	8.2	1	3	45	0.00	30.055 
15:50	12.6	12.6	12.6	82	8.2	0	3	45	0.00	30.057 
15:55	12.6	12.6	12.6	82	8.2	0	2	90	0.00	30.056 
16:00	12.8	12.8	12.8	82	8.4	0	2	90	0.00	30.059 
16:05	12.6	12.6	12.6	81	7.9	1	2	135	0.00	30.065 
16:10	12.6	12.6	12.6	81	7.9	1	2	135	0.00	30.067 
16:15	12.3	12.3	12.3	81	7.6	1	3	112	0.00	30.072 
16:20	12.3	12.3	12.3	81	7.6	1	3	68	0.00	30.074 
16:25	12.1	12.1	12.1	81	7.4	1	3	45	0.00	30.080 
16:30	12.1	12.1	12.1	81	7.4	1	3	90	0.00	30.088 
16:35	12.1	12.1	12.1	81	7.4	0	2	135	0.00	30.089 
16:40	11.9	11.9	11.9	81	7.2	0	2	45	0.00	30.092 
16:45	11.7	11.7	11.7	81	7.0	1	5	112	0.00	30.102 
16:50	11.7	11.7	11.7	81	7.0	1	4	45	0.00	30.103 
16:55	11.6	11.6	11.6	80	6.6	1	3	90	0.00	30.107 
17:00	11.6	11.6	11.6	81	6.9	0	1	90	0.00	30.111 
17:05	11.6	11.6	11.6	81	6.9	0	1	45	0.00	30.111 
17:10	11.4	11.4	11.4	81	6.7	0	2	45	0.00	30.113 
17:15	11.4	11.4	11.4	80	6.5	0	4	22	0.00	30.118 
17:20	11.2	11.2	11.2	80	6.3	0	4	22	0.00	30.126 
17:25	11.2	11.2	11.2	81	6.5	0	4	270	0.00	30.133 
17:30	11.1	11.1	11.1	81	6.4	1	2	22	0.00	30.135 
17:35	10.9	10.9	10.9	81	6.2	1	3	45	0.00	30.137 
17:40	10.9	10.9	10.9	81	6.2	0	2	45	0.00	30.139 
17:45	10.7	10.7	10.7	81	6.0	1	3	0	0.00	30.144 
17:50	10.7	10.7	10.7	81	6.0	0	3	0	0.00	30.147 
17:55	10.5	10.5	10.5	81	5.8	0	2	0	0.00	30.152 
18:00	10.5	10.5	10.5	81	5.8	0	1	0	0.00	30.159 
18:05	10.5	10.5	10.5	81	5.8	1	2	292	0.00	30.157 
18:10	10.4	10.4	10.4	81	5.7	1	3	22	0.00	30.167 
18:15	10.4	10.4	10.4	81	5.7	0	2	22	0.00	30.168 
18:20	10.2	10.2	10.2	81	5.6	0	1	338	0.00	30.171 
18:25	10.0	10.0	10.0	81	5.4	0	1	338	0.00	30.175 
18:30	10.0	10.0	10.0	81	5.4	0	3	0	0.00	30.182 
18:35	9.9	9.9	9.9	81	5.3	0	1	0	0.00	30.183 
18:40	9.7	9.7	9.7	81	5.1	0	1	315	0.00	30.186 
18:45	9.5	9.5	9.5	81	4.9	0	2	315	0.00	30.188 
18:50	9.3	9.3	9.3	81	4.7	0	1	315	0.00	30.192 
18:55	9.2	9.2	9.2	81	4.6	0	1	315	0.00	30.194 
19:00	9.0	9.0	9.0	81	4.4	0	1	315	0.00	30.198 
19:05	8.8	8.8	8.8	81	4.2	0	1	315	0.00	30.199 
19:10	8.6	8.6	8.6	81	4.0	0	1	315	0.00	30.205 
19:15	8.4	8.4	8.4	81	3.8	0	1	315	0.00	30.210 
19:20	8.3	8.3	8.3	81	3.7	0	1	315	0.00	30.213 
19:25	7.9	7.9	7.9	81	3.3	0	1	315	0.00	30.209 
19:30	7.7	7.7	7.7	81	3.1	0	1	315	0.00	30.215 
19:35	7.6	7.6	7.6	81	3.0	0	1	315	0.00	30.219 
19:40	7.4	7.4	7.4	81	2.8	0	0	---	0.00	30.218 
19:45	7.2	7.2	7.2	81	2.6	0	1	315	0.00	30.223 
19:50	7.0	7.0	7.0	81	2.4	0	0	---	0.00	30.231 
19:55	6.9	6.9	6.9	81	2.3	0	1	315	0.00	30.234 
20:00	6.9	6.9	6.9	82	2.6	0	1	315	0.00	30.246 
20:05	7.0	7.0	7.0	82	2.7	0	1	315	0.00	30.248 
20:10	6.9	6.9	6.9	82	2.6	0	1	315	0.00	30.250 
20:15	6.9	6.9	6.9	82	2.6	0	1	315	0.00	30.251 
20:20	6.7	6.7	6.7	82	2.4	0	0	---	0.00	30.250 
20:25	6.5	6.5	6.5	81	1.9	0	0	---	0.00	30.253 
20:30	6.1	6.1	6.1	81	1.5	0	0	---	0.00	30.262 
20:35	6.0	6.0	6.0	81	1.4	0	0	---	0.00	30.264 
20:40	5.8	5.8	5.8	81	1.3	0	1	315	0.00	30.264 
20:45	5.8	5.8	5.8	81	1.3	0	0	---	0.00	30.264 
20:50	5.6	5.6	5.6	81	1.1	0	0	---	0.00	30.265 
20:55	5.4	5.4	5.4	82	1.1	0	0	---	0.00	30.271 
21:00	5.2	5.2	5.2	81	0.7	0	0	---	0.00	30.276 
21:05	5.2	5.2	5.2	82	0.9	0	0	---	0.00	30.278 
21:10	5.0	5.0	5.0	82	0.7	0	0	---	0.00	30.278 
21:15	4.8	4.8	4.8	82	0.5	0	0	---	0.00	30.280 
21:20	4.8	4.8	4.8	82	0.5	0	0	---	0.00	30.281 
21:25	4.8	4.8	4.8	82	0.5	0	0	---	0.00	30.285 
21:30	5.0	5.0	5.0	82	0.7	0	0	---	0.00	30.288 
21:35	5.0	5.0	5.0	82	0.7	0	0	---	0.00	30.289 
21:40	5.0	5.0	5.0	82	0.7	0	0	---	0.00	30.292 
21:45	5.0	5.0	5.0	82	0.7	0	0	---	0.00	30.293 
21:50	5.0	5.0	5.0	82	0.7	0	0	---	0.00	30.295 
21:55	4.8	4.8	4.8	82	0.5	0	0	---	0.00	30.296 
22:00	4.8	4.8	4.8	82	0.5	0	0	---	0.00	30.297 
22:05	4.7	4.7	4.7	82	0.4	0	0	---	0.00	30.294 
22:10	4.7	4.7	4.7	82	0.4	0	0	---	0.00	30.296 
22:15	4.7	4.7	4.7	82	0.4	0	0	---	0.00	30.298 
22:20	4.7	4.7	4.7	82	0.4	0	1	315	0.00	30.302 
22:25	4.7	4.7	4.7	82	0.4	0	0	---	0.00	30.305 
22:30	4.7	4.7	4.7	82	0.4	0	0	---	0.00	30.306 
22:35	4.5	4.5	4.5	82	0.2	0	0	---	0.00	30.308 
22:40	4.5	4.5	4.5	82	0.2	0	0	---	0.00	30.310 
22:45	4.5	4.5	4.5	82	0.2	0	0	---	0.00	30.311 
22:50	4.5	4.5	4.5	82	0.2	0	1	315	0.00	30.313 
22:55	4.3	4.3	4.3	82	0.0	0	0	---	0.00	30.317 
23:00	4.1	4.1	4.1	81	-0.4	0	0	---	0.00	30.322 
23:05	3.9	3.9	3.9	81	-0.6	0	1	315	0.00	30.324 
23:10	4.1	4.1	4.1	81	-0.4	0	1	315	0.00	30.326 
23:15	4.1	4.1	4.1	81	-0.4	0	1	315	0.00	30.331 
23:20	4.1	4.1	4.1	82	-0.1	0	1	315	0.00	30.335 
23:25	4.1	4.1	4.1	81	-0.4	0	1	315	0.00	30.338 
23:30	3.9	3.9	3.9	81	-0.6	0	1	315	0.00	30.341 
23:35	3.9	3.9	3.9	81	-0.6	0	1	315	0.00	30.342 
23:40	3.7	3.7	3.7	81	-0.8	0	1	315	0.00	30.342 
23:45	3.5	3.5	3.5	81	-1.0	0	1	315	0.00	30.347 
23:50	3.4	3.4	3.4	81	-1.1	0	1	315	0.00	30.351 
23:55	3.2	3.2	3.2	81	-1.3	0	1	315	0.00	30.356 

CoCoRaHS
IN-AL-39
A2 Web Hosting
Creative Commons License
GoDaddy
search engine by freefind advanced

loaded 2018-12-19 10:19:39 • last modified 2010-11-18 10:43:29
Privacy PolicyDisclaimer
• wx.awcolley.com is powered by PmWiki v.2002016 •
• all content (unless otherwise noted) © 2018 A W Colley